Time;durP1;ratioP1;P1;durP2;ratioP2;P2;SDS_P1;SDS_P2;PMS_P1;PMS_P2;Temp;Humidity;BMP_temperature;BMP_pressure;BME280_temperature;BME280_humidity;BME280_pressure;Samples;Min_cycle;Max_cycle;Signal;HPM_P1;HPM_P2
2023/04/11 00:04:02;;;;;;;14.35;9.32;;;;;;;9.50;48.75;97687.25;12798543;23;20020;-76
2023/04/11 00:09:23;;;;;;;14.85;8.85;;;;;;;9.46;48.66;97673.78;12784301;23;20434;-77
2023/04/11 00:14:47;;;;;;;14.70;9.18;;;;;;;9.40;49.04;97676.84;12828140;23;20013;-77
2023/04/11 00:20:09;;;;;;;13.52;9.63;;;;;;;9.42;49.10;97659.53;12809823;23;20017;-76
2023/04/11 00:25:31;;;;;;;12.05;8.77;;;;;;;9.40;49.20;97632.28;12808291;23;20027;-76
2023/04/11 00:30:52;;;;;;;11.82;8.63;;;;;;;9.24;49.44;97619.97;12805113;23;20024;-76
2023/04/11 00:36:13;;;;;;;14.75;9.27;;;;;;;9.02;50.78;97626.78;12769651;23;20017;-76
2023/04/11 00:41:34;;;;;;;14.73;9.90;;;;;;;8.98;50.08;97624.44;12722848;23;20025;-77
2023/04/11 00:46:56;;;;;;;14.57;9.20;;;;;;;9.00;50.26;97604.34;12783988;23;20028;-77
2023/04/11 00:52:16;;;;;;;14.45;9.35;;;;;;;8.93;50.32;97594.09;12783966;23;20072;-76
2023/04/11 00:57:37;;;;;;;15.57;9.60;;;;;;;8.98;50.43;97582.69;12804490;23;20013;-76
2023/04/11 01:02:58;;;;;;;13.35;8.60;;;;;;;9.06;50.50;97576.94;12764672;23;20017;-77
2023/04/11 01:08:19;;;;;;;12.60;8.93;;;;;;;9.18;50.42;97558.31;12784125;23;20021;-76
2023/04/11 01:13:40;;;;;;;12.98;9.05;;;;;;;9.16;50.49;97558.16;12764626;23;20013;-76
2023/04/11 01:19:01;;;;;;;13.25;9.27;;;;;;;9.05;50.52;97555.97;12806282;23;20475;-76
2023/04/11 01:24:22;;;;;;;12.43;8.90;;;;;;;8.95;50.46;97544.13;12808147;23;20321;-76
2023/04/11 01:29:43;;;;;;;11.73;8.25;;;;;;;8.91;50.96;97555.72;12745631;23;20021;-76
2023/04/11 01:35:05;;;;;;;13.43;9.50;;;;;;;8.90;51.13;97548.69;12766768;23;20017;-76
2023/04/11 01:40:26;;;;;;;15.57;9.52;;;;;;;8.86;51.36;97546.34;12765989;23;20052;-76
2023/04/11 01:45:47;;;;;;;12.82;9.43;;;;;;;8.92;51.50;97542.53;12807624;23;20336;-76
2023/04/11 01:51:08;;;;;;;12.73;8.70;;;;;;;9.01;51.39;97541.78;12806739;23;20017;-76
2023/04/11 01:56:29;;;;;;;13.95;9.13;;;;;;;9.06;51.43;97532.38;12807025;23;20502;-76
2023/04/11 02:01:50;;;;;;;13.07;9.35;;;;;;;9.07;51.35;97522.69;12806861;23;20020;-77
2023/04/11 02:07:11;;;;;;;12.65;8.80;;;;;;;8.97;51.23;97530.34;12789981;23;20016;-77
2023/04/11 02:12:31;;;;;;;12.43;8.63;;;;;;;8.86;51.42;97540.78;12811119;23;20017;-77
2023/04/11 02:17:52;;;;;;;13.43;9.20;;;;;;;8.89;51.55;97550.03;12785283;23;20024;-76
2023/04/11 02:23:15;;;;;;;12.07;8.30;;;;;;;8.92;50.82;97539.75;12783899;23;20017;-76
2023/04/11 02:28:36;;;;;;;11.80;7.75;;;;;;;8.88;51.06;97532.59;12804532;23;20013;-76
2023/04/11 02:33:57;;;;;;;11.25;7.95;;;;;;;8.85;50.99;97505.19;12804512;23;20067;-76
2023/04/11 02:39:18;;;;;;;11.48;8.32;;;;;;;8.65;51.88;97506.53;12782954;23;20017;-76
2023/04/11 02:44:40;;;;;;;10.35;7.65;;;;;;;8.48;51.75;97477.56;12782823;23;20017;-76
2023/04/11 02:50:01;;;;;;;12.50;7.85;;;;;;;8.39;51.92;97449.75;12803081;23;20024;-76
2023/04/11 02:55:28;;;;;;;12.23;7.88;;;;;;;8.38;51.99;97439.94;12785255;23;20020;-76
2023/04/11 03:00:50;;;;;;;9.55;6.80;;;;;;;8.29;52.36;97433.78;12803698;23;20336;-76
2023/04/11 03:06:11;;;;;;;12.32;7.78;;;;;;;8.29;52.57;97428.22;12771383;23;20021;-77
2023/04/11 03:11:33;;;;;;;11.95;7.20;;;;;;;8.37;52.25;97424.59;12831317;23;20455;-76
2023/04/11 03:16:56;;;;;;;10.27;7.22;;;;;;;8.45;52.37;97427.94;12780384;23;20059;-76
2023/04/11 03:22:17;;;;;;;11.80;7.38;;;;;;;8.55;52.49;97417.53;12800933;23;20024;-76
2023/04/11 03:27:40;;;;;;;10.23;7.28;;;;;;;8.50;52.80;97385.19;12801867;23;20447;-76
2023/04/11 03:33:03;;;;;;;8.88;6.25;;;;;;;8.46;52.43;97373.78;12780687;23;20032;-77
2023/04/11 03:38:24;;;;;;;10.13;7.03;;;;;;;8.47;52.82;97375.97;12779174;23;20024;-76
2023/04/11 03:43:45;;;;;;;10.40;6.82;;;;;;;8.51;52.71;97367.19;12759440;23;20021;-76
2023/04/11 03:49:06;;;;;;;8.93;6.78;;;;;;;8.50;52.35;97344.19;12779755;23;20017;-76
2023/04/11 03:54:27;;;;;;;9.35;6.45;;;;;;;8.46;52.79;97334.84;12779434;23;20090;-76
2023/04/11 03:59:49;;;;;;;9.55;6.03;;;;;;;8.36;53.41;97311.88;12799215;23;20024;-77
2023/04/11 04:05:10;;;;;;;9.07;6.28;;;;;;;8.41;52.85;97313.63;12747948;23;20021;-77
2023/04/11 04:10:32;;;;;;;9.32;6.07;;;;;;;8.46;52.51;97307.03;12758829;23;20020;-76
2023/04/11 04:15:53;;;;;;;8.95;6.18;;;;;;;8.55;52.87;97292.34;12800626;23;20024;-76
2023/04/11 04:21:18;;;;;;;7.28;5.45;;;;;;;8.62;52.42;97285.16;12800333;23;20348;-77
2023/04/11 04:26:40;;;;;;;8.40;5.68;;;;;;;8.66;52.39;97294.47;12821197;23;20020;-77
2023/04/11 04:32:13;;;;;;;7.90;5.35;;;;;;;8.68;52.46;97277.19;12781502;23;20017;-77
2023/04/11 04:37:44;;;;;;;7.97;5.70;;;;;;;8.74;52.52;97280.38;12762325;23;20017;-77
2023/04/11 04:43:17;;;;;;;;;;;;;;;8.83;52.47;97276.81;12765317;23;20017;-76
2023/04/11 04:48:44;;;;;;;7.53;5.45;;;;;;;8.88;52.01;97265.38;12800880;23;19916;-77
2023/04/11 04:54:05;;;;;;;8.68;5.93;;;;;;;8.81;51.78;97257.94;12779012;23;20029;-76
2023/04/11 04:59:26;;;;;;;9.70;6.18;;;;;;;8.83;52.15;97266.41;12779747;23;20017;-77
2023/04/11 05:04:55;;;;;;;9.32;5.82;;;;;;;8.89;52.42;97258.47;12763357;23;20017;-77
2023/04/11 05:10:17;;;;;;;8.32;5.72;;;;;;;8.86;52.16;97254.09;12783082;23;20049;-76
2023/04/11 05:15:48;;;;;;;8.65;5.30;;;;;;;8.79;52.45;97243.91;12782607;23;20024;-78
2023/04/11 05:21:09;;;;;;;7.97;5.60;;;;;;;8.89;52.03;97239.00;12780282;23;20021;-75
2023/04/11 05:26:34;;;;;;;8.82;5.88;;;;;;;9.05;52.26;97249.72;12759805;23;20029;-75
2023/04/11 05:31:55;;;;;;;7.28;5.13;;;;;;;9.27;52.13;97264.38;12778272;23;20067;-75
2023/04/11 05:37:15;;;;;;;6.47;5.18;;;;;;;9.49;52.73;97256.72;12758630;23;20017;-75
2023/04/11 05:42:36;;;;;;;7.22;5.55;;;;;;;9.61;52.45;97268.63;12800656;23;20020;-76
2023/04/11 05:47:57;;;;;;;7.28;5.25;;;;;;;9.62;52.64;97248.53;12780668;23;20021;-76
2023/04/11 05:53:18;;;;;;;7.72;5.10;;;;;;;9.65;52.77;97249.38;12781725;23;20017;-75
2023/04/11 05:58:41;;;;;;;7.55;5.75;;;;;;;9.73;52.60;97244.31;12802048;23;20020;-76
2023/04/11 06:04:02;;;;;;;7.15;5.38;;;;;;;9.67;53.16;97235.59;12797407;23;20131;-76
2023/04/11 06:09:23;;;;;;;7.50;4.82;;;;;;;9.66;53.99;97240.44;12801427;23;20021;-76
2023/04/11 06:14:43;;;;;;;9.17;5.60;;;;;;;9.66;54.52;97245.28;12755354;23;1074955;-76
2023/04/11 06:20:06;;;;;;;9.63;5.57;;;;;;;9.65;55.25;97249.38;12805854;23;20017;-76
2023/04/11 06:25:27;;;;;;;8.38;5.53;;;;;;;9.44;55.78;97236.94;12805495;23;20024;-76
2023/04/11 06:30:47;;;;;;;9.32;5.57;;;;;;;9.39;56.23;97242.88;12785439;23;20024;-76
2023/04/11 06:36:09;;;;;;;14.80;6.38;;;;;;;9.44;57.69;97222.28;12806726;23;20432;-76
2023/04/11 06:41:30;;;;;;;11.15;5.35;;;;;;;9.46;57.22;97219.66;12787263;23;20075;-76
2023/04/11 06:46:51;;;;;;;10.57;6.13;;;;;;;9.36;60.65;97210.63;12785642;23;20032;-75
2023/04/11 06:52:11;;;;;;;9.95;5.45;;;;;;;9.33;59.05;97209.06;12764020;23;20021;-76
2023/04/11 06:57:32;;;;;;;9.23;6.15;;;;;;;9.32;59.24;97191.63;12785460;23;20431;-76
2023/04/11 07:02:54;;;;;;;12.98;7.07;;;;;;;9.25;60.47;97186.25;12807316;23;20024;-77
2023/04/11 07:08:43;;;;;;;12.15;6.60;;;;;;;9.36;60.14;97189.09;12789373;23;20025;-77
2023/04/11 07:14:04;;;;;;;9.85;6.65;;;;;;;9.38;61.25;97178.06;12785460;23;20039;-77
2023/04/11 07:19:25;;;;;;;12.65;6.75;;;;;;;9.50;61.29;97183.69;12785104;23;20025;-77
2023/04/11 07:24:49;;;;;;;9.93;6.47;;;;;;;9.78;60.75;97187.50;12785443;23;20352;-77
2023/04/11 07:30:10;;;;;;;8.82;5.90;;;;;;;10.12;60.39;97182.53;12808621;23;20013;-78
2023/04/11 07:35:33;;;;;;;9.82;6.65;;;;;;;10.45;60.42;97176.88;12809611;23;20012;-78
2023/04/11 07:40:58;;;;;;;8.55;6.32;;;;;;;10.30;60.15;97198.34;12787069;23;20105;-77
2023/04/11 07:46:19;;;;;;;10.75;6.10;;;;;;;10.31;60.79;97199.06;12767591;23;20017;-77
2023/04/11 07:51:40;;;;;;;8.98;5.70;;;;;;;10.40;60.85;97198.22;12832174;23;20048;-77
2023/04/11 07:57:01;;;;;;;8.98;6.20;;;;;;;10.65;61.37;97214.34;12810755;23;20336;-77
2023/04/11 08:02:22;;;;;;;8.07;5.57;;;;;;;10.92;61.18;97210.28;12770588;23;20324;-77
2023/04/11 08:07:43;;;;;;;10.15;5.55;;;;;;;11.04;61.28;97222.88;12791908;23;20025;-77
2023/04/11 08:13:04;;;;;;;9.25;5.97;;;;;;;11.06;61.09;97228.56;12791054;23;20076;-77
2023/04/11 08:18:25;;;;;;;10.68;5.80;;;;;;;11.03;61.83;97231.88;12796040;23;20021;-78
2023/04/11 08:23:45;;;;;;;7.45;5.20;;;;;;;10.96;61.89;97230.06;12790167;23;20024;-77
2023/04/11 08:29:09;;;;;;;6.75;4.35;;;;;;;10.83;63.45;97245.38;12832536;23;20018;-77
2023/04/11 08:34:32;;;;;;;5.88;3.92;;;;;;;10.76;64.21;97258.25;12790089;23;20392;-77
2023/04/11 08:39:53;;;;;;;5.75;3.78;;;;;;;10.73;64.83;97264.34;12813864;23;20021;-77
2023/04/11 08:45:13;;;;;;;4.90;3.72;;;;;;;11.09;64.81;97266.44;12793860;23;20024;-78
2023/04/11 08:50:34;;;;;;;7.00;3.80;;;;;;;11.54;64.24;97262.66;12815111;23;20466;-77
2023/04/11 08:55:55;;;;;;;6.55;4.38;;;;;;;11.99;63.90;97277.81;12815381;23;20024;-78
2023/04/11 09:01:30;;;;;;;4.90;3.88;;;;;;;14.51;63.58;97283.97;12794367;23;20017;-77
2023/04/11 09:06:57;;;;;;;6.10;3.72;;;;;;;15.84;58.22;97289.56;12794734;23;20305;-77
2023/04/11 09:12:28;;;;;;;5.65;3.70;;;;;;;14.77;57.07;97312.53;12794345;23;20329;-78
2023/04/11 09:17:49;;;;;;;6.40;4.25;;;;;;;13.79;58.66;97318.50;12801521;23;20463;-77
2023/04/11 09:23:23;;;;;;;6.88;3.40;;;;;;;13.58;59.27;97310.44;12816566;23;20017;-77
2023/04/11 09:28:54;;;;;;;5.50;3.58;;;;;;;14.19;59.28;97307.75;12835280;23;20021;-78
2023/04/11 09:34:27;;;;;;;6.63;3.33;;;;;;;14.47;58.51;97300.63;12774934;23;20309;-77
2023/04/11 09:39:59;;;;;;;5.38;3.72;;;;;;;14.29;57.76;97292.09;12813557;23;20372;-77
2023/04/11 09:45:21;;;;;;;4.28;3.08;;;;;;;14.38;58.37;97293.19;12771530;23;20024;-77
2023/04/11 09:50:42;;;;;;;9.77;3.50;;;;;;;14.62;55.63;97276.72;12813200;23;20021;-77
2023/04/11 09:56:05;;;;;;;3.67;2.63;;;;;;;14.12;56.19;97284.28;12809831;23;20020;-77
2023/04/11 10:01:26;;;;;;;4.18;2.65;;;;;;;13.56;55.99;97299.88;12774427;23;20017;-77
2023/04/11 10:07:01;;;;;;;2.83;1.35;;;;;;;13.09;54.74;97294.00;12837147;23;20024;-78
2023/04/11 10:12:31;;;;;;;2.33;1.40;;;;;;;12.78;55.17;97288.94;12796129;23;20017;-77
2023/04/11 10:18:09;;;;;;;1.63;1.00;;;;;;;13.37;54.81;97275.09;12774132;23;20420;-77
2023/04/11 10:23:30;;;;;;;1.40;0.70;;;;;;;14.36;53.87;97290.28;12796294;23;20028;-78
2023/04/11 10:28:50;;;;;;;1.40;0.70;;;;;;;14.37;52.77;97241.19;12815899;23;20071;-77
2023/04/11 10:34:13;;;;;;;3.75;1.23;;;;;;;14.21;52.03;97307.84;12815087;23;20379;-77
2023/04/11 10:47:38;;;;;;;1.63;0.80;;;;;;;14.74;50.75;97299.00;12650236;23;20037;-78
2023/04/11 10:53:05;;;;;;;2.25;0.88;;;;;;;15.19;49.65;97290.41;12835442;23;20383;-78
2023/04/11 10:58:33;;;;;;;2.45;0.77;;;;;;;15.39;49.05;97291.25;12775616;23;20021;-77
2023/04/11 11:03:55;;;;;;;1.70;0.60;;;;;;;15.88;47.24;97292.53;12806532;23;20325;-78
2023/04/11 11:09:20;;;;;;;2.05;0.47;;;;;;;15.97;46.69;97285.84;12795146;23;20021;-77
2023/04/11 11:14:45;;;;;;;2.53;0.52;;;;;;;15.85;46.27;97291.75;12796393;23;20024;-77
2023/04/11 11:20:08;;;;;;;2.47;0.60;;;;;;;16.00;46.44;97285.28;12813543;23;20352;-77
2023/04/11 11:25:31;;;;;;;2.60;0.75;;;;;;;17.23;44.55;97270.75;12805591;23;20047;-79
2023/04/11 11:30:59;;;;;;;2.45;0.60;;;;;;;16.71;42.32;97273.19;12832043;23;20017;-78
2023/04/11 11:36:48;;;;;;;3.33;0.77;;;;;;;17.25;42.70;97287.00;12805380;23;20025;-80
2023/04/11 11:42:09;;;;;;;1.70;0.73;;;;;;;18.44;41.11;97276.00;12799613;23;20455;-80
2023/04/11 11:47:29;;;;;;;2.78;0.57;;;;;;;19.13;36.82;97271.59;12758064;23;20031;-81
2023/04/11 11:52:51;;;;;;;3.70;0.50;;;;;;;19.12;37.70;97265.22;12798412;23;20024;-80
2023/04/11 11:58:13;;;;;;;2.53;0.30;;;;;;;19.55;36.89;97257.06;12799579;23;20013;-81
2023/04/11 12:03:36;;;;;;;2.85;0.60;;;;;;;20.36;34.35;97244.78;12795552;23;20017;-81
2023/04/11 12:09:07;;;;;;;2.55;0.40;;;;;;;20.14;32.83;97245.03;12779275;23;20071;-80
2023/04/11 12:14:28;;;;;;;1.92;0.40;;;;;;;19.50;32.42;97239.28;12801644;23;20017;-80
2023/04/11 12:19:49;;;;;;;2.97;0.70;;;;;;;18.99;31.54;97243.63;12781703;23;20021;-80
2023/04/11 12:25:11;;;;;;;3.20;0.40;;;;;;;18.35;32.12;97242.53;12781119;23;20384;-80
2023/04/11 12:30:32;;;;;;;2.90;0.30;;;;;;;18.00;31.64;97242.22;12782640;23;20095;-79
2023/04/11 12:35:54;;;;;;;1.02;0.30;;;;;;;17.77;31.38;97228.81;12825549;23;20335;-79
2023/04/11 12:41:14;;;;;;;2.70;0.43;;;;;;;17.80;30.93;97229.59;12806647;23;20432;-79
2023/04/11 12:46:51;;;;;;;1.38;0.32;;;;;;;18.16;31.29;97239.16;12808090;23;20021;-78
2023/04/11 12:52:40;;;;;;;2.88;0.20;;;;;;;18.75;30.16;97240.16;12773325;23;20021;-79
2023/04/11 12:58:01;;;;;;;4.22;0.47;;;;;;;18.70;29.66;97261.94;12800036;23;20013;-81
2023/04/11 13:03:22;;;;;;;2.80;0.20;;;;;;;17.53;31.09;97284.44;12779901;23;20020;-79
2023/04/11 13:09:13;;;;;;;1.20;0.20;;;;;;;16.21;32.44;97295.25;12815599;23;20029;-79
2023/04/11 13:14:35;;;;;;;2.75;0.20;;;;;;;15.52;33.95;97303.00;12797154;23;20017;-78
2023/04/11 13:19:56;;;;;;;1.27;0.20;;;;;;;15.13;34.48;97316.19;12839804;23;20021;-78
2023/04/11 13:25:17;;;;;;;1.52;0.28;;;;;;;14.59;35.41;97336.97;12814868;23;20025;-78
2023/04/11 13:31:09;;;;;;;0.60;0.10;;;;;;;14.01;35.93;97350.44;12803350;23;20033;-78
2023/04/11 13:36:36;;;;;;;1.27;0.20;;;;;;;13.81;36.71;97374.72;12838613;23;20052;-78
2023/04/11 13:41:58;;;;;;;2.05;0.30;;;;;;;13.67;38.17;97399.97;12838241;23;20336;-78
2023/04/11 13:47:20;;;;;;;2.00;0.20;;;;;;;13.64;39.54;97409.63;12815498;23;20079;-78
2023/04/11 13:52:42;;;;;;;0.65;0.20;;;;;;;13.77;39.89;97419.38;12817329;23;20036;-78
2023/04/11 13:58:03;;;;;;;0.65;0.10;;;;;;;13.78;39.52;97434.84;12816099;23;20017;-78
2023/04/11 14:03:24;;;;;;;1.17;0.20;;;;;;;14.47;39.07;97429.81;12795676;23;20025;-78
2023/04/11 14:08:45;;;;;;;0.82;0.10;;;;;;;14.93;38.24;97433.31;12794910;23;20036;-78
2023/04/11 14:14:36;;;;;;;0.52;0.10;;;;;;;14.16;38.93;97429.69;12801847;23;20440;-79
2023/04/11 14:19:57;;;;;;;0.40;0.20;;;;;;;14.00;39.37;97412.81;12794324;23;20028;-78
2023/04/11 14:25:19;;;;;;;2.67;0.20;;;;;;;13.47;40.25;97432.59;12835597;23;20427;-78
2023/04/11 14:30:42;;;;;;;0.68;0.25;;;;;;;13.27;41.24;97414.75;12837354;23;20032;-79
2023/04/11 14:36:03;;;;;;;0.93;0.20;;;;;;;13.34;40.90;97391.28;12838442;23;20083;-78
2023/04/11 14:41:24;;;;;;;0.45;0.10;;;;;;;13.29;40.88;97398.75;12839884;23;20017;-78
2023/04/11 14:47:14;;;;;;;1.65;0.20;;;;;;;13.42;41.00;97398.03;12801031;23;20029;-78
2023/04/11 14:52:38;;;;;;;0.55;0.10;;;;;;;13.66;41.07;97389.38;12837078;23;20017;-79
2023/04/11 14:57:59;;;;;;;0.77;0.10;;;;;;;13.83;40.57;97383.22;12827944;23;20520;-79
2023/04/11 15:03:20;;;;;;;0.52;0.15;;;;;;;14.24;40.17;97387.97;12833385;23;20459;-78
2023/04/11 15:08:43;;;;;;;0.93;0.20;;;;;;;14.55;39.60;97401.38;12793709;23;20023;-78
2023/04/11 15:14:04;;;;;;;0.60;0.22;;;;;;;14.66;39.55;97397.69;12813099;23;20017;-78
2023/04/11 15:19:27;;;;;;;1.33;0.30;;;;;;;14.39;39.28;97392.19;12794108;23;20013;-78
2023/04/11 15:24:50;;;;;;;1.98;0.20;;;;;;;13.70;39.28;97381.91;12833390;23;20016;-78
2023/04/11 15:38:40;;;;;;;2.10;0.30;;;;;;;13.24;39.60;97393.56;12749115;23;20021;-78
2023/04/11 15:44:01;;;;;;;2.47;0.20;;;;;;;13.04;39.59;97393.94;12699825;23;20504;-78
2023/04/11 15:49:22;;;;;;;1.73;0.15;;;;;;;12.76;39.78;97395.97;12686803;23;20024;-78
2023/04/11 15:54:42;;;;;;;2.05;0.30;;;;;;;12.50;40.26;97392.47;12717679;23;20025;-76
2023/04/11 16:00:37;;;;;;;2.88;0.30;;;;;;;12.54;40.80;97401.09;12715302;23;20122;-77
2023/04/11 16:06:01;;;;;;;2.78;0.28;;;;;;;12.60;40.61;97389.50;12728445;23;20340;-77
2023/04/11 16:12:22;;;;;;;0.90;0.30;;;;;;;12.47;40.85;97390.91;12794623;23;20108;-78
2023/04/11 16:17:45;;;;;;;1.58;0.30;;;;;;;12.24;40.91;97391.75;12819339;23;20020;-76
2023/04/11 16:23:33;;;;;;;0.82;0.25;;;;;;;12.00;41.00;97393.94;12790230;23;20331;-77
2023/04/11 16:29:23;;;;;;;0.90;0.30;;;;;;;11.84;41.57;97389.50;12787493;23;20033;-74
2023/04/11 16:34:44;;;;;;;1.48;0.50;;;;;;;11.63;42.27;97396.69;12805716;23;20021;-76
2023/04/11 16:41:07;;;;;;;1.13;0.40;;;;;;;11.45;43.39;97395.63;12791330;23;20367;-77
2023/04/11 16:46:56;;;;;;;1.58;0.28;;;;;;;11.48;43.56;97405.59;12811272;23;20028;-78
2023/04/11 16:52:17;;;;;;;1.23;0.20;;;;;;;11.44;43.18;97403.28;12811672;23;20023;-75
2023/04/11 16:57:47;;;;;;;0.90;0.30;;;;;;;11.29;43.52;97417.78;12783168;23;20021;-76
2023/04/11 17:03:36;;;;;;;2.17;0.47;;;;;;;11.22;43.22;97418.75;12781049;23;20025;-76
2023/04/11 17:08:57;;;;;;;0.60;0.30;;;;;;;11.20;43.63;97431.88;12786594;23;20509;-76
2023/04/11 17:14:18;;;;;;;1.70;0.32;;;;;;;11.09;43.87;97414.47;12810566;23;20017;-76
2023/04/11 17:19:38;;;;;;;1.73;0.32;;;;;;;11.05;43.93;97417.03;12789689;23;20024;-77
2023/04/11 17:24:59;;;;;;;2.30;0.57;;;;;;;11.00;43.75;97443.28;12830687;23;20017;-77
2023/04/11 17:30:20;;;;;;;2.38;0.40;;;;;;;10.92;43.53;97461.59;12812338;23;20016;-77
2023/04/11 17:35:41;;;;;;;1.40;0.30;;;;;;;10.72;43.85;97486.94;12804690;23;20332;-75
2023/04/11 17:41:08;;;;;;;1.33;0.40;;;;;;;10.54;43.71;97472.56;12784435;23;20024;-75
2023/04/11 17:46:48;;;;;;;3.40;0.70;;;;;;;10.32;43.71;97476.69;12812603;23;20028;-77
2023/04/11 17:52:15;;;;;;;1.42;0.50;;;;;;;10.14;43.80;97486.69;12812089;23;20039;-77
2023/04/11 17:57:36;;;;;;;2.42;0.80;;;;;;;9.98;43.95;97486.34;12786458;23;20444;-77
2023/04/11 18:02:58;;;;;;;2.13;0.60;;;;;;;9.91;43.94;97487.28;12784238;23;20024;-76
2023/04/11 18:08:19;;;;;;;1.23;0.45;;;;;;;9.87;43.39;97498.88;12786116;23;20028;-77
2023/04/11 18:13:44;;;;;;;3.22;0.30;;;;;;;9.90;42.84;97503.25;12768762;23;20021;-75
2023/04/11 18:19:09;;;;;;;2.67;0.40;;;;;;;9.93;43.22;97510.44;12787535;23;20020;-75
2023/04/11 18:24:29;;;;;;;3.15;0.40;;;;;;;9.88;43.61;97521.94;12785527;23;20321;-76
2023/04/11 18:29:53;;;;;;;3.88;0.57;;;;;;;9.66;43.61;97524.69;12785915;23;20017;-76
2023/04/11 18:35:15;;;;;;;2.20;0.60;;;;;;;9.49;44.06;97526.97;12825460;23;20024;-76
2023/04/11 18:40:36;;;;;;;1.30;0.40;;;;;;;9.27;44.27;97524.13;12805889;23;20013;-77
2023/04/11 18:46:04;;;;;;;2.47;0.50;;;;;;;9.04;45.73;97521.09;12786389;23;20021;-78
2023/04/11 18:51:57;;;;;;;1.70;0.52;;;;;;;8.88;46.45;97549.28;12788198;23;20420;-79
2023/04/11 18:57:29;;;;;;;3.30;0.63;;;;;;;8.65;46.54;97545.50;12829207;23;20454;-78
2023/04/11 19:03:22;;;;;;;1.20;0.30;;;;;;;8.42;47.23;97530.00;12789076;23;20455;-78
2023/04/11 19:08:43;;;;;;;1.73;0.50;;;;;;;8.36;47.50;97526.75;12760299;23;20047;-78
2023/04/11 19:22:50;;;;;;;5.28;1.95;;;;;;;8.37;48.04;97522.66;12822708;23;20017;-78
2023/04/11 19:28:13;;;;;;;2.67;1.00;;;;;;;8.32;48.03;97521.63;12759925;23;20036;-78
2023/04/11 19:33:34;;;;;;;3.63;1.20;;;;;;;8.37;48.28;97516.38;12739921;23;20028;-78
2023/04/11 19:38:55;;;;;;;3.45;0.80;;;;;;;8.40;48.26;97520.78;12759347;23;20013;-77
2023/04/11 19:44:47;;;;;;;2.95;0.80;;;;;;;8.36;48.26;97526.75;12757638;23;20025;-78
2023/04/11 19:50:11;;;;;;;1.95;0.50;;;;;;;8.24;47.80;97559.97;12780337;23;20017;-78
2023/04/11 19:56:02;;;;;;;2.38;0.60;;;;;;;8.09;48.36;97562.28;12772171;23;20025;-77
2023/04/11 20:02:00;;;;;;;4.43;0.80;;;;;;;7.96;49.05;97563.44;12744403;23;20331;-78
2023/04/11 20:07:21;;;;;;;2.53;0.68;;;;;;;7.90;49.32;97560.91;12761521;23;20017;-77
2023/04/11 20:12:43;;;;;;;3.63;0.80;;;;;;;7.84;49.01;97562.53;12740032;23;20021;-78
2023/04/11 20:18:32;;;;;;;4.57;0.80;;;;;;;7.74;49.19;97554.88;12753390;23;20020;-77
2023/04/11 20:24:27;;;;;;;2.70;0.60;;;;;;;7.67;49.40;97544.63;12772219;23;20021;-77
2023/04/11 20:30:16;;;;;;;3.80;0.80;;;;;;;7.60;49.48;97553.81;12770077;23;20029;-77
2023/04/11 20:35:40;;;;;;;4.43;0.90;;;;;;;7.56;49.97;97567.41;12763850;23;20021;-78
2023/04/11 20:41:04;;;;;;;5.60;0.75;;;;;;;7.50;49.98;97558.59;12744152;23;20017;-78
2023/04/11 20:46:28;;;;;;;2.05;0.90;;;;;;;7.40;50.27;97539.13;12764921;23;20020;-78
2023/04/11 20:51:58;;;;;;;2.28;0.73;;;;;;;7.30;50.81;97551.50;12742621;23;20020;-77
2023/04/11 20:57:55;;;;;;;2.38;0.63;;;;;;;7.25;51.51;97566.41;12775081;23;20029;-78
2023/04/11 21:03:43;;;;;;;2.72;0.57;;;;;;;7.21;51.40;97577.16;12774658;23;20025;-78
2023/04/11 21:09:08;;;;;;;2.65;0.70;;;;;;;7.09;51.23;97574.91;12782288;23;20021;-78
2023/04/11 21:14:31;;;;;;;3.25;1.10;;;;;;;7.02;51.97;97584.06;12782673;23;20383;-78
2023/04/11 21:19:52;;;;;;;4.30;1.10;;;;;;;6.98;52.34;97592.09;12772541;23;20017;-78
2023/04/11 21:25:44;;;;;;;2.42;1.00;;;;;;;6.87;52.51;97590.56;12772852;23;20448;-78
2023/04/11 21:31:05;;;;;;;2.45;0.82;;;;;;;6.79;53.98;97597.50;12802250;23;20028;-77
2023/04/11 21:36:33;;;;;;;2.28;0.75;;;;;;;6.72;52.59;97581.69;12761353;23;20009;-78
2023/04/11 21:41:55;;;;;;;1.90;0.57;;;;;;;6.66;53.57;97586.75;12782225;23;20017;-78
2023/04/11 21:47:18;;;;;;;4.03;0.73;;;;;;;6.60;53.33;97593.28;12802728;23;20017;-77
2023/04/11 21:52:42;;;;;;;2.38;0.90;;;;;;;6.56;54.06;97601.28;12741122;23;20024;-78
2023/04/11 21:58:03;;;;;;;;;;;;;;;6.47;54.67;97584.56;12761476;23;20028;-78
2023/04/11 22:03:27;;;;;;;2.53;0.57;;;;;;;6.43;54.22;97582.19;12761578;23;19917;-78
2023/04/11 22:08:53;;;;;;;2.75;0.70;;;;;;;6.39;54.76;97587.41;12783345;23;20024;-78
2023/04/11 22:14:21;;;;;;;3.03;0.70;;;;;;;6.35;54.76;97578.03;12760585;23;20063;-78
2023/04/11 22:19:41;;;;;;;1.60;0.60;;;;;;;6.28;55.49;97583.09;12769265;23;20083;-78
2023/04/11 22:25:02;;;;;;;2.03;0.98;;;;;;;6.24;55.54;97588.28;12762491;23;20412;-78
2023/04/11 22:30:24;;;;;;;2.70;0.80;;;;;;;6.16;55.59;97575.81;12802026;23;20025;-78
2023/04/11 22:35:46;;;;;;;1.85;1.20;;;;;;;6.13;56.20;97571.41;12760507;23;20087;-77
2023/04/11 22:41:13;;;;;;;3.40;0.75;;;;;;;6.12;56.00;97570.69;12763324;23;20021;-78
2023/04/11 22:46:38;;;;;;;2.97;1.00;;;;;;;6.11;56.70;97557.41;12743258;23;20444;-78
2023/04/11 22:52:29;;;;;;;1.83;0.60;;;;;;;6.09;56.24;97560.00;12792297;23;20096;-78
2023/04/11 22:57:50;;;;;;;2.10;0.57;;;;;;;6.03;56.74;97563.75;12774427;23;20021;-78
2023/04/11 23:03:12;;;;;;;2.45;0.68;;;;;;;6.03;56.42;97555.44;12780583;23;20013;-78
2023/04/11 23:08:33;;;;;;;2.45;0.70;;;;;;;6.02;56.31;97551.19;12761232;23;20013;-77
2023/04/11 23:13:55;;;;;;;3.10;0.82;;;;;;;6.00;57.60;97551.03;12781157;23;20366;-77
2023/04/11 23:19:17;;;;;;;3.72;0.82;;;;;;;5.97;57.29;97537.56;12759973;23;20294;-78
2023/04/11 23:24:38;;;;;;;1.75;0.57;;;;;;;5.91;57.28;97540.59;12779222;23;20021;-78
2023/04/11 23:30:04;;;;;;;3.03;0.63;;;;;;;5.90;57.78;97552.22;12759753;23;20021;-77
2023/04/11 23:35:26;;;;;;;2.35;0.73;;;;;;;5.89;58.67;97547.97;12759375;23;20068;-78
2023/04/11 23:40:47;;;;;;;2.72;0.90;;;;;;;5.91;58.69;97535.03;12716730;23;20013;-77
2023/04/11 23:46:08;;;;;;;3.15;1.02;;;;;;;5.85;58.76;97531.75;12760167;23;20020;-77
2023/04/11 23:51:29;;;;;;;2.45;0.73;;;;;;;5.75;59.86;97526.09;12740194;23;20020;-77
2023/04/11 23:56:50;;;;;;;2.65;0.85;;;;;;;5.73;59.22;97519.66;12758400;23;20064;-78
